Last 48 Hours

Canyon Lodge

15 Minute Data | America/Los_Angeles
as of 2/5/23 10:46 PM PST
Date & Time Temp (°F) WindChill (°F) RH (%) Dew Pt (°F) Wet Bulb (°F) Wind Dir (°) Wind Spd (mph) Wind Gust (mph) Wind Gst Dir (°) Daily Min Temp (°F) Daily Max Temp (°F) Daily Max Wind (mph)
2/5/23 - 2245 9.8 - 91 7.6 9.6 W | 272 1.9 6.3 WSW | 254 8.4 28.5 35.0
2/5/23 - 2230 10.0 3.7 91 8.0 9.8 WSW | 258 3.4 5.8 WSW | 248 8.4 28.5 35.0
2/5/23 - 2215 9.4 - 91 7.2 9.1 WSW | 252 2.2 5.6 WSW | 250 8.4 28.5 35.0
2/5/23 - 2200 9.8 - 91 7.7 9.6 W | 268 1.7 5.2 WSW | 254 8.4 28.5 35.0
2/5/23 - 2145 9.7 - 92 7.7 9.5 W | 267 2.6 6.6 WSW | 243 8.4 28.5 35.0
2/5/23 - 2130 8.8 - 90 6.5 8.6 WSW | 240 2.6 6.2 WSW | 255 8.4 28.5 35.0
2/5/23 - 2115 9.5 2.8 91 7.3 9.3 WSW | 248 3.6 6.0 SW | 218 9.2 28.5 35.0
2/5/23 - 2100 9.9 2.1 91 7.7 9.6 W | 268 4.3 6.0 W | 273 9.4 28.5 35.0
2/5/23 - 2045 10.1 1.2 90 7.8 9.8 W | 266 5.1 7.1 W | 274 9.4 28.5 35.0
2/5/23 - 2030 11.1 3.0 90 8.8 10.7 W | 262 4.6 7.0 W | 260 10.3 28.5 35.0
2/5/23 - 2015 12.6 5.6 92 10.6 12.2 W | 269 4.1 7.5 W | 268 12.2 28.5 35.0
2/5/23 - 2000 13.6 - 93 11.9 13.3 WNW | 286 3.0 6.1 NW | 306 13.2 28.5 35.0
2/5/23 - 1945 13.6 - 93 11.9 13.2 WSW | 258 1.6 5.3 SW | 229 13.5 28.5 35.0
2/5/23 - 1930 14.2 8.6 92 12.3 13.8 WSW | 250 3.3 7.5 SW | 223 13.6 28.5 35.0
2/5/23 - 1915 15.3 - 93 13.6 14.9 WSW | 239 1.8 6.6 SE | 133 14.7 28.5 35.0
2/5/23 - 1900 16.2 - 94 14.7 15.8 SW | 219 2.8 8.6 SW | 215 15.9 28.5 35.0
2/5/23 - 1845 16.4 11.2 94 14.9 16.0 S | 183 3.3 9.1 SW | 229 16.2 28.5 35.0
2/5/23 - 1830 16.9 12.2 94 15.5 16.5 SW | 227 3.0 9.4 W | 270 16.7 28.5 35.0
2/5/23 - 1815 17.0 10.6 94 15.7 16.6 WSW | 241 4.2 12.5 W | 260 16.8 28.5 35.0
2/5/23 - 1800 16.9 10.0 94 15.6 16.6 SW | 228 4.5 12.9 WSW | 241 16.8 28.5 35.0
2/5/23 - 1745 17.1 8.3 94 15.7 16.7 SSW | 205 6.2 16.3 W | 273 17.0 28.5 35.0
2/5/23 - 1730 17.6 9.2 94 16.2 17.2 SSW | 201 5.8 12.9 SSW | 205 17.2 28.5 35.0
2/5/23 - 1715 18.0 10.3 95 16.8 17.7 SSW | 206 5.4 15.5 WSW | 244 17.8 28.5 35.0
2/5/23 - 1700 17.9 11.0 95 16.7 17.5 SSW | 204 4.5 10.9 SW | 215 17.8 28.5 35.0
2/5/23 - 1645 17.9 12.3 95 16.6 17.5 SW | 215 3.7 10.5 SW | 216 17.9 28.5 35.0
2/5/23 - 1630 17.9 12.7 95 16.7 17.5 SW | 226 3.4 10.6 SW | 215 17.9 28.5 35.0
2/5/23 - 1615 18.0 12.2 95 16.7 17.6 SW | 218 3.8 11.3 SW | 230 17.9 28.5 35.0
2/5/23 - 1600 18.2 12.2 95 17.0 17.8 SW | 223 4.0 14.4 WNW | 288 18.0 28.5 35.0
2/5/23 - 1545 18.3 - 95 17.1 17.9 SW | 218 2.9 9.7 SE | 142 18.0 28.5 35.0
2/5/23 - 1530 18.4 11.5 95 17.1 18.0 SSW | 212 4.6 12.8 SSW | 208 18.0 28.5 35.0
2/5/23 - 1515 18.6 10.7 95 17.3 18.2 SSW | 204 5.5 15.1 WSW | 249 18.0 28.5 35.0
2/5/23 - 1500 19.0 12.0 95 17.8 18.6 SW | 216 4.9 15.4 W | 260 18.0 28.5 35.0
2/5/23 - 1445 19.1 12.2 95 17.9 18.7 SSW | 195 4.8 13.8 SSE | 166 18.0 28.5 35.0
2/5/23 - 1430 19.1 13.3 95 18.0 18.7 SSW | 211 3.9 11.4 SW | 228 18.0 28.5 35.0
2/5/23 - 1415 19.2 11.2 95 18.0 18.8 SSW | 199 5.8 16.9 S | 186 18.0 28.5 35.0
2/5/23 - 1400 19.7 13.6 95 18.6 19.3 SSW | 204 4.2 10.8 SW | 214 18.0 28.5 35.0
2/5/23 - 1345 19.9 13.0 96 18.8 19.5 SSW | 206 4.8 13.7 SW | 228 18.0 28.5 35.0
2/5/23 - 1330 20.0 14.7 96 19.0 19.6 SW | 214 3.7 9.5 WSW | 249 18.0 28.5 35.0
2/5/23 - 1315 19.9 12.5 96 18.8 19.5 SW | 214 5.3 13.9 SSW | 202 18.0 28.5 35.0
2/5/23 - 1300 19.8 12.5 96 18.8 19.4 SSW | 203 5.3 13.6 SW | 226 18.0 28.5 35.0
2/5/23 - 1245 19.6 14.7 96 18.6 19.2 SW | 217 3.3 11.3 WSW | 252 18.0 28.5 35.0
2/5/23 - 1230 19.3 - 96 18.2 18.9 S | 174 1.7 10.6 WSW | 239 18.0 28.5 35.0
2/5/23 - 1215 19.1 - 95 18.0 18.7 W | 268 1.5 6.7 SE | 132 18.0 28.5 35.0
2/5/23 - 1200 19.0 12.6 95 17.8 18.6 SSW | 196 4.4 19.4 WSW | 239 18.0 28.5 35.0
2/5/23 - 1145 19.5 10.6 94 18.1 19.0 SW | 225 6.7 22.0 WSW | 254 18.0 28.5 35.0
2/5/23 - 1130 20.1 13.4 95 18.9 19.6 SSW | 196 4.8 15.3 SW | 236 18.0 28.5 35.0
2/5/23 - 1115 19.5 14.8 96 18.4 19.1 WSW | 248 3.2 12.4 WNW | 287 18.0 28.5 35.0
2/5/23 - 1100 19.0 14.4 95 17.8 18.6 WSW | 251 3.1 12.6 W | 273 18.0 28.5 35.0
2/5/23 - 1045 18.2 13.4 95 16.9 17.8 WSW | 256 3.1 12.0 WNW | 298 18.0 28.5 35.0
2/5/23 - 1030 18.4 13.3 94 17.0 18.0 WSW | 248 3.4 11.1 SSW | 192 18.1 28.5 35.0
2/5/23 - 1015 18.5 11.8 94 17.1 18.1 W | 263 4.5 13.9 WSW | 255 18.4 28.5 35.0
2/5/23 - 1000 18.5 12.0 94 17.2 18.1 W | 266 4.4 15.3 WSW | 247 18.4 28.5 35.0
2/5/23 - 0945 18.6 13.3 94 17.2 18.2 W | 271 3.5 14.8 WNW | 285 18.4 28.5 35.0
2/5/23 - 0930 19.7 15.3 95 18.5 19.2 W | 279 3.0 11.0 W | 264 18.7 28.5 35.0
2/5/23 - 0915 19.8 14.1 95 18.5 19.3 WSW | 257 3.9 18.1 SW | 235 18.7 28.5 35.0
2/5/23 - 0900 19.9 12.3 93 18.2 19.3 SW | 234 5.5 23.8 WNW | 290 18.7 28.5 35.0
2/5/23 - 0845 19.4 - 95 18.2 19.0 ENE | 57 2.0 8.6 NNE | 14 18.7 28.5 35.0
2/5/23 - 0830 19.0 - 94 17.5 18.5 N | 349 2.5 11.3 NW | 311 18.7 28.5 35.0
2/5/23 - 0815 19.0 - 93 17.2 18.4 WSW | 257 2.3 11.1 WSW | 246 18.7 28.5 35.0
2/5/23 - 0800 19.0 - 91 16.7 18.3 W | 269 1.7 10.9 SSW | 208 18.7 28.5 35.0
2/5/23 - 0745 19.0 - 89 16.3 18.2 ESE | 122 2.4 9.8 SE | 134 18.7 28.5 35.0
2/5/23 - 0730 18.8 13.6 89 16.0 18.0 S | 180 3.5 13.9 NNW | 332 18.7 28.5 35.0
2/5/23 - 0715 18.8 - 88 15.8 17.9 SSW | 213 2.2 10.1 NE | 39 18.7 28.5 35.0
2/5/23 - 0700 18.7 - 88 15.8 17.9 S | 169 2.8 9.6 SSW | 211 18.7 28.5 35.0
2/5/23 - 0645 18.9 13.2 88 16.1 18.1 SSW | 196 3.8 12.8 WSW | 254 18.7 28.5 35.0
2/5/23 - 0630 18.9 13.5 89 16.1 18.1 SW | 227 3.6 9.7 SW | 216 18.8 28.5 35.0
2/5/23 - 0615 19.1 - 89 16.4 18.3 S | 186 2.9 12.2 SW | 224 19.0 28.5 35.0
2/5/23 - 0600 19.1 12.9 89 16.4 18.3 SSW | 194 4.2 12.4 S | 185 19.0 28.5 35.0
2/5/23 - 0545 19.2 13.2 88 16.3 18.3 SSW | 202 4.1 15.0 SSE | 161 19.0 28.5 35.0
2/5/23 - 0530 19.2 13.1 89 16.5 18.4 WSW | 255 4.2 21.9 SW | 215 19.2 28.5 35.0
2/5/23 - 0515 19.4 12.5 89 16.7 18.6 S | 186 4.8 13.7 SW | 230 19.2 28.5 35.0
2/5/23 - 0500 19.6 12.2 91 17.4 18.9 WSW | 255 5.4 18.5 SSW | 202 19.4 28.5 35.0
2/5/23 - 0445 20.1 13.4 92 18.1 19.5 SSE | 162 4.7 26.2 SE | 140 19.9 28.5 35.0
2/5/23 - 0430 20.6 15.7 94 19.0 20.0 ESE | 112 3.4 16.7 SE | 133 20.4 28.5 35.0
2/5/23 - 0415 20.6 13.9 94 19.1 20.1 S | 178 4.8 15.9 SSE | 153 20.5 28.5 35.0
2/5/23 - 0400 21.0 16.7 95 19.7 20.5 SSW | 212 3.1 12.8 SW | 228 20.7 28.5 35.0
2/5/23 - 0345 21.6 16.6 95 20.4 21.2 SSW | 197 3.6 14.0 W | 276 21.3 28.5 35.0
2/5/23 - 0330 23.0 16.1 96 22.1 22.6 SSW | 203 5.4 18.2 SW | 235 22.3 28.5 35.0
2/5/23 - 0315 24.2 19.0 97 23.5 23.9 SW | 236 4.1 20.0 SW | 217 23.7 28.5 35.0
2/5/23 - 0300 25.1 - 98 24.5 24.8 SSW | 203 2.8 16.5 SE | 136 24.8 28.5 35.0
2/5/23 - 0245 26.4 20.4 98 25.8 26.0 SW | 231 5.1 21.5 WNW | 302 25.5 28.5 35.0
2/5/23 - 0230 28.0 21.1 99 27.8 27.8 SSW | 194 6.4 22.1 SSE | 163 26.3 28.5 35.0
2/5/23 - 0215 27.8 20.8 99 27.5 27.6 SSW | 199 6.5 35.0 NNW | 332 26.3 28.5 35.0
2/5/23 - 0200 28.2 20.3 98 27.7 27.9 SW | 229 7.8 31.7 SSE | 163 26.3 28.5 31.7
2/5/23 - 0145 28.4 23.0 98 28.0 28.1 N | 360 4.8 22.9 WSW | 245 26.3 28.5 30.6
2/5/23 - 0130 28.3 22.1 98 27.9 28.0 ENE | 75 5.7 30.6 SE | 125 26.3 28.5 30.6
2/5/23 - 0115 28.1 21.9 98 27.7 27.8 ESE | 123 5.6 21.2 ESE | 116 26.3 28.3 24.9
2/5/23 - 0100 27.8 21.2 98 27.4 27.5 NNE | 20 6.0 24.9 WSW | 256 26.3 28.0 24.9
2/5/23 - 0045 27.4 22.0 98 26.9 27.1 ENE | 72 4.7 15.4 SE | 132 26.3 27.6 23.2
2/5/23 - 0030 26.7 20.5 98 26.1 26.4 WNW | 296 5.4 20.4 SW | 228 26.3 27.2 23.2
2/5/23 - 0015 26.5 18.9 98 25.9 26.2 SW | 235 6.9 23.2 WNW | 288 26.3 26.6 23.2
2/5/23 - 0000 27.2 21.4 98 26.6 26.9 N | 5 5.1 21.6 SSW | 206 23.8 42.1 28.0
2/4/23 - 2345 27.7 23.4 97 27.0 27.3 E | 80 3.8 13.3 NNW | 338 23.8 42.1 28.0
2/4/23 - 2330 28.1 23.1 97 27.3 27.7 SSW | 201 4.4 21.8 SE | 136 23.8 42.1 28.0
2/4/23 - 2315 28.5 22.5 96 27.4 28.0 SW | 231 5.5 27.9 SW | 235 23.8 42.1 28.0
2/4/23 - 2300 27.4 23.1 96 26.5 27.0 WSW | 243 3.7 16.4 SW | 230 23.8 42.1 28.0
2/4/23 - 2245 27.6 21.4 96 26.6 27.1 SE | 131 5.5 17.5 WNW | 289 23.8 42.1 28.0
2/4/23 - 2230 28.0 24.3 96 27.0 27.6 ENE | 73 3.4 15.2 ENE | 69 23.8 42.1 28.0
2/4/23 - 2215 28.7 - 97 27.9 28.3 SE | 129 2.5 11.6 SE | 140 23.8 42.1 28.0
2/4/23 - 2200 28.0 23.3 97 27.3 27.6 WSW | 246 4.1 15.8 W | 280 23.8 42.1 28.0
2/4/23 - 2145 26.9 - 98 26.4 26.6 N | 354 2.2 6.2 N | 5 23.8 42.1 28.0
2/4/23 - 2130 27.4 - 96 26.3 26.8 W | 270 1.9 11.1 SSW | 201 23.8 42.1 28.0
2/4/23 - 2115 27.0 - 95 25.7 26.4 E | 101 1.6 10.1 NW | 304 23.8 42.1 28.0
2/4/23 - 2100 27.8 23.8 89 24.9 26.7 WSW | 241 3.6 15.6 W | 278 23.8 42.1 28.0
2/4/23 - 2045 30.3 27.0 61 18.4 26.5 WSW | 248 3.3 9.0 WNW | 286 23.8 42.1 28.0
2/4/23 - 2030 30.9 - 48 13.6 25.8 W | 264 2.1 10.8 WSW | 255 23.8 42.1 28.0
2/4/23 - 2015 29.7 - 52 14.4 25.1 NNW | 328 1.3 6.3 SW | 224 23.8 42.1 28.0
2/4/23 - 2000 31.3 - 47 13.5 26.0 WSW | 253 1.1 4.0 SW | 230 23.8 42.1 28.0
2/4/23 - 1945 31.3 - 48 13.8 26.1 WSW | 251 0.6 5.4 WSW | 246 23.8 42.1 28.0
2/4/23 - 1930 31.6 - 48 14.2 26.3 WSW | 250 2.6 11.0 W | 262 23.8 42.1 28.0
2/4/23 - 1915 31.7 - 46 13.3 26.2 WSW | 239 2.5 9.7 S | 188 23.8 42.1 28.0
2/4/23 - 1900 31.6 28.0 49 14.7 26.4 WSW | 241 3.6 13.0 SSW | 210 23.8 42.1 28.0
2/4/23 - 1845 31.0 27.3 55 16.8 26.5 WSW | 243 3.6 10.5 WNW | 294 23.8 42.1 28.0
2/4/23 - 1830 30.7 25.0 61 19.1 27.0 WSW | 250 5.6 13.1 W | 274 23.8 42.1 28.0
2/4/23 - 1815 30.8 24.6 61 19.1 27.0 WSW | 239 6.3 17.6 SSW | 208 23.8 42.1 28.0
2/4/23 - 1800 30.7 26.0 65 20.3 27.3 WSW | 241 4.6 11.8 SW | 224 23.8 42.1 28.0
2/4/23 - 1745 31.4 25.7 59 18.6 27.2 WSW | 246 5.8 15.3 W | 275 23.8 42.1 28.0
2/4/23 - 1730 32.2 27.1 49 15.3 27.0 WSW | 250 5.3 12.5 W | 270 23.8 42.1 28.0
2/4/23 - 1715 33.9 28.5 40 12.0 27.4 WSW | 255 6.0 14.9 WSW | 247 23.8 42.1 28.0
2/4/23 - 1700 34.6 29.9 37 10.9 27.6 WSW | 256 5.2 18.2 WSW | 257 23.8 42.1 28.0
2/4/23 - 1645 34.2 28.7 41 13.2 27.8 WSW | 254 6.3 20.0 W | 269 23.8 42.1 28.0
2/4/23 - 1630 34.7 30.2 40 12.8 28.1 WSW | 240 5.1 18.0 W | 272 23.8 42.1 28.0
2/4/23 - 1615 35.0 28.8 39 12.3 28.2 WSW | 253 7.4 22.4 W | 274 23.8 42.1 28.0
2/4/23 - 1600 35.1 28.9 38 12.0 28.2 WSW | 250 7.6 22.1 W | 281 23.8 42.1 28.0
2/4/23 - 1545 35.4 29.5 37 11.5 28.3 WSW | 256 7.2 20.6 W | 281 23.8 42.1 28.0
2/4/23 - 1530 35.2 28.1 38 12.3 28.3 W | 264 9.2 24.7 WSW | 256 23.8 42.1 28.0
2/4/23 - 1515 35.4 28.6 38 12.6 28.5 W | 261 8.8 21.7 WNW | 288 23.8 42.1 28.0
2/4/23 - 1500 35.5 28.6 38 12.5 28.5 WSW | 256 8.9 20.3 W | 278 23.8 42.1 28.0
2/4/23 - 1445 35.3 28.8 37 11.8 28.2 WSW | 253 8.1 26.3 SW | 218 23.8 42.1 28.0
2/4/23 - 1430 35.1 29.1 38 12.1 28.2 W | 260 7.3 21.9 WNW | 285 23.8 42.1 28.0
2/4/23 - 1415 34.8 27.3 38 11.9 27.9 WSW | 251 9.7 22.6 W | 271 23.8 42.1 28.0
2/4/23 - 1400 34.6 27.4 39 12.4 27.9 WSW | 254 9.1 24.3 WSW | 255 23.8 42.1 28.0
2/4/23 - 1345 34.5 27.8 39 12.3 27.8 WSW | 242 8.3 21.1 WSW | 258 23.8 42.1 28.0
2/4/23 - 1330 34.5 27.2 40 12.5 27.9 WSW | 239 9.2 28.0 WNW | 293 23.8 42.1 28.0
2/4/23 - 1315 34.5 27.9 41 13.4 28.0 WSW | 239 8.0 21.8 W | 270 23.8 42.1 24.1
2/4/23 - 1300 34.8 27.6 38 11.8 28.0 WSW | 249 9.4 24.1 WSW | 254 23.8 42.1 24.1
2/4/23 - 1245 35.9 29.2 35 10.8 28.4 WSW | 256 8.6 24.0 W | 277 23.8 42.1 24.0
2/4/23 - 1230 36.3 30.2 33 10.0 28.5 WSW | 245 7.9 22.1 SSW | 194 23.8 42.1 22.1
2/4/23 - 1215 37.4 32.5 30 9.0 29.0 WSW | 246 6.1 19.6 WSW | 250 23.8 42.1 20.4
2/4/23 - 1200 37.6 32.2 28 7.1 28.8 WSW | 242 7.0 18.8 WNW | 282 23.8 42.1 20.4
2/4/23 - 1145 37.8 32.5 27 6.5 28.8 WSW | 239 6.9 19.6 W | 278 23.8 42.1 20.4
2/4/23 - 1130 38.7 34.5 25 5.8 29.3 WSW | 245 5.7 18.8 WNW | 291 23.8 42.1 20.4
2/4/23 - 1115 38.8 34.7 25 5.6 29.3 WSW | 256 5.5 20.4 W | 276 23.8 42.1 20.4
2/4/23 - 1100 40.5 - 25 7.0 30.6 SW | 217 2.3 8.4 SW | 224 23.8 42.1 18.1
2/4/23 - 1045 40.7 37.7 25 7.6 30.8 W | 261 4.4 13.5 WNW | 290 23.8 42.1 18.1
2/4/23 - 1030 41.5 39.3 26 9.1 31.5 WSW | 247 3.7 9.8 SW | 224 23.8 42.1 18.1
2/4/23 - 1015 41.5 38.5 26 8.9 31.5 W | 274 4.7 14.9 SW | 224 23.8 42.0 18.1
2/4/23 - 1000 41.3 - 25 8.3 31.3 WSW | 245 2.8 15.9 NW | 326 23.8 41.7 18.1
2/4/23 - 0945 40.9 38.5 25 7.9 31.0 W | 268 3.8 11.8 WNW | 287 23.8 41.2 18.1
2/4/23 - 0930 40.5 37.6 25 7.8 30.7 WSW | 250 4.3 11.6 W | 262 23.8 40.8 18.1
2/4/23 - 0915 39.5 - 25 6.6 29.9 W | 269 2.6 7.5 SW | 230 23.8 40.1 18.1
2/4/23 - 0900 38.7 - 24 5.2 29.2 WSW | 245 2.4 9.1 SSW | 195 23.8 38.9 18.1
2/4/23 - 0845 38.5 35.1 22 3.4 28.9 WSW | 237 4.6 11.8 WSW | 250 23.8 38.8 18.1
2/4/23 - 0830 38.0 35.0 23 3.1 28.5 SW | 233 4.0 12.1 SW | 227 23.8 38.3 18.1
2/4/23 - 0815 37.7 33.4 22 1.9 28.1 SW | 234 5.4 14.0 NW | 306 23.8 38.0 18.1
2/4/23 - 0800 36.0 33.3 24 2.3 27.2 SW | 233 3.5 10.3 W | 271 23.8 37.0 18.1
2/4/23 - 0745 35.5 32.7 24 2.1 26.8 SW | 219 3.5 8.5 SSW | 192 23.8 36.3 18.1
2/4/23 - 0730 33.8 - 26 2.4 25.7 SW | 226 3.0 8.5 WSW | 246 23.8 36.3 18.1
2/4/23 - 0715 34.4 31.3 25 2.6 26.1 SW | 226 3.5 11.7 S | 188 23.8 36.3 18.1
2/4/23 - 0700 32.8 29.8 28 3.2 25.2 SW | 236 3.3 9.1 S | 177 23.8 36.3 18.1
2/4/23 - 0645 33.8 30.2 24 0.9 25.6 WSW | 243 4.0 9.7 WSW | 258 23.8 36.3 18.1
2/4/23 - 0630 33.7 31.1 21 -2.5 25.0 WSW | 238 3.1 9.3 W | 277 23.8 36.3 18.1
2/4/23 - 0615 31.9 - 22 -3.2 23.8 SW | 232 2.3 9.0 SSW | 213 23.8 36.3 18.1
2/4/23 - 0600 34.7 31.8 16 -6.5 25.3 SW | 227 3.4 9.4 SW | 224 23.8 36.3 18.1
2/4/23 - 0545 35.5 31.4 14 -8.8 25.6 SW | 229 4.7 12.9 WSW | 237 23.8 36.3 18.1
2/4/23 - 0530 34.5 31.1 14 -10.5 24.8 WSW | 238 3.9 13.2 W | 266 23.8 36.0 18.1
2/4/23 - 0515 30.3 - 18 -8.1 22.2 WNW | 286 2.6 9.4 SW | 228 23.8 34.4 18.1
2/4/23 - 0500 28.9 - 22 -5.4 21.5 NW | 306 1.4 5.0 NNE | 33 23.8 34.4 18.1
2/4/23 - 0445 29.0 - 22 -4.7 21.7 SW | 214 1.5 5.2 SW | 229 23.8 34.4 18.1
2/4/23 - 0430 32.5 29.2 17 -8.3 23.7 SW | 226 3.5 18.1 W | 275 23.8 34.4 18.1
2/4/23 - 0415 31.4 - 18 -7.6 23.1 WSW | 240 2.2 8.4 S | 188 23.8 34.4 12.8
2/4/23 - 0400 28.8 - 23 -4.6 21.6 S | 171 1.2 9.4 W | 274 23.8 34.4 12.8
2/4/23 - 0345 30.1 - 20 -6.1 22.3 SSW | 208 1.2 7.6 W | 278 23.8 34.4 12.8
2/4/23 - 0330 32.3 - 16 -9.0 23.5 SSW | 210 2.7 9.9 SSW | 205 23.8 34.4 12.8
2/4/23 - 0315 30.6 27.2 18 -9.1 22.4 NW | 318 3.5 12.8 E | 94 23.8 34.4 12.8
2/4/23 - 0300 26.3 - 29 -1.7 20.2 SW | 233 2.1 8.2 WSW | 239 23.8 33.1 10.0
2/4/23 - 0245 26.6 - 30 -0.7 20.4 WNW | 298 1.7 6.7 W | 262 23.8 33.1 10.0
2/4/23 - 0230 25.2 - 33 0.3 19.6 NW | 326 2.9 9.4 N | 350 23.8 33.1 10.0
2/4/23 - 0215 25.6 - 32 0.0 19.9 WSW | 256 1.6 5.7 WSW | 245 24.6 33.1 10.0
2/4/23 - 0200 26.0 - 32 0.4 20.2 WNW | 284 1.6 6.1 WSW | 255 24.9 33.1 10.0
2/4/23 - 0145 28.8 - 26 -2.4 21.8 NNE | 21 2.0 10.0 NNE | 33 24.9 33.1 10.0
2/4/23 - 0130 28.1 - 28 -1.4 21.5 NE | 45 2.7 8.1 N | 4 24.9 33.1 8.8
2/4/23 - 0115 28.2 - 26 -2.8 21.4 N | 10 2.1 6.3 N | 352 24.9 33.1 8.8
2/4/23 - 0100 30.1 - 24 -3.2 22.6 SSE | 149 1.1 6.1 ESE | 102 24.9 33.1 8.8
2/4/23 - 0045 28.3 - 25 -3.6 21.3 SSW | 208 1.9 8.8 SW | 236 24.9 32.3 8.8
2/4/23 - 0030 26.4 - 31 -0.4 20.4 SSW | 200 1.2 6.4 SW | 215 24.9 29.5 6.9
2/4/23 - 0015 26.9 - 36 3.3 21.2 W | 277 0.8 6.9 SW | 230 25.0 29.5 6.9
2/4/23 - 0000 29.0 - 29 0.7 22.4 N | 350 1.5 6.4 NW | 324 18.4 36.1 34.0
2/3/23 - 2345 31.7 - 21 -3.7 23.6 WSW | 245 2.1 7.8 WSW | 246 18.4 36.1 34.0
2/3/23 - 2330 31.8 - 21 -3.7 23.7 SW | 225 2.8 9.4 SW | 228 18.4 36.1 34.0
2/3/23 - 2315 29.2 - 25 -2.5 22.0 SW | 227 1.0 8.5 SW | 229 18.4 36.1 34.0
2/3/23 - 2300 26.8 - 36 3.1 21.1 W | 281 0.5 4.5 SSW | 213 18.4 36.1 34.0
2/3/23 - 2245 27.8 - 34 3.1 21.9 NNW | 327 2.4 7.4 NW | 325 18.4 36.1 34.0
Max 41.5 39.3 99 28.0 31.5 - 9.7 35.0 - 26.3 42.1 35.0
Avg 26.1 20.8 66 12.5 22.5 - 4.1 13.5 - - - -
Min 8.8 1.2 14 -10.5 8.6 - 0.5 4.0 - 8.4 26.6 6.9